createdAt,value
2022-10-16T00:00:28.602Z,15.16
2022-10-16T00:02:30.646Z,15.15
2022-10-16T00:04:32.953Z,15.12
2022-10-16T00:06:34.995Z,15.14
2022-10-16T00:08:37.885Z,15.07
2022-10-16T00:10:41.235Z,15.08
2022-10-16T00:12:43.442Z,15.03
2022-10-16T00:14:45.368Z,15.01
2022-10-16T00:16:47.372Z,14.96
2022-10-16T00:18:49.398Z,14.96
2022-10-16T00:20:52.037Z,14.95
2022-10-16T00:22:54.599Z,14.94
2022-10-16T00:24:57.141Z,14.93
2022-10-16T00:26:59.156Z,14.92
2022-10-16T00:29:01.805Z,14.85
2022-10-16T00:31:13.847Z,14.79
2022-10-16T00:33:15.972Z,14.80
2022-10-16T00:35:18.101Z,14.88
2022-10-16T00:37:20.125Z,14.84
2022-10-16T00:39:22.727Z,14.75
2022-10-16T00:41:28.275Z,14.64
2022-10-16T00:43:45.344Z,14.62
2022-10-16T00:45:47.296Z,14.61
2022-10-16T00:47:52.648Z,14.66
2022-10-16T00:50:01.154Z,14.65
2022-10-16T00:52:03.798Z,14.73
2022-10-16T00:54:16.456Z,14.66
2022-10-16T00:56:19.375Z,14.66
2022-10-16T00:58:22.251Z,14.66
2022-10-16T01:00:27.482Z,14.59
2022-10-16T01:02:29.546Z,14.62
2022-10-16T01:04:36.565Z,14.55
2022-10-16T01:06:50.422Z,14.52
2022-10-16T01:09:01.817Z,14.47
2022-10-16T01:11:23.108Z,14.50
2022-10-16T01:13:32.953Z,14.51
2022-10-16T01:15:50.889Z,14.48
2022-10-16T01:18:02.561Z,14.53
2022-10-16T01:20:19.334Z,14.47
2022-10-16T01:22:24.414Z,14.49
2022-10-16T01:24:38.789Z,14.43
2022-10-16T01:27:05.349Z,14.41
2022-10-16T01:29:10.475Z,14.44
2022-10-16T01:31:18.439Z,14.40
2022-10-16T01:33:34.101Z,14.36
2022-10-16T01:35:47.639Z,14.37
2022-10-16T01:37:49.642Z,14.45
2022-10-16T01:39:55.966Z,14.37
2022-10-16T01:42:18.736Z,14.32
2022-10-16T01:44:29.577Z,14.35
2022-10-16T01:46:33.485Z,14.40
2022-10-16T01:48:36.669Z,14.35
2022-10-16T01:50:42.827Z,14.28
2022-10-16T01:52:47.903Z,14.16
2022-10-16T01:54:53.884Z,14.10
2022-10-16T01:56:57.874Z,14.10
2022-10-16T01:59:07.216Z,14.10
2022-10-16T02:01:17.777Z,14.17
2022-10-16T02:03:21.144Z,14.19
2022-10-16T02:05:35.226Z,14.20
2022-10-16T02:07:37.629Z,14.25
2022-10-16T02:09:40.225Z,14.26
2022-10-16T02:11:42.191Z,14.26
2022-10-16T02:13:56.671Z,14.24
2022-10-16T02:15:58.650Z,14.25
2022-10-16T02:18:01.287Z,14.14
2022-10-16T02:20:04.482Z,14.04
2022-10-16T02:22:09.546Z,13.91
2022-10-16T02:24:45.522Z,13.89
2022-10-16T02:26:59.143Z,13.94
2022-10-16T02:29:06.832Z,14.05
2022-10-16T02:31:13.140Z,14.10
2022-10-16T02:33:17.528Z,14.11
2022-10-16T02:35:22.380Z,14.04
2022-10-16T02:37:26.101Z,14.08
2022-10-16T02:39:31.005Z,14.04
2022-10-16T02:41:34.053Z,14.10
2022-10-16T02:43:36.252Z,14.04
2022-10-16T02:45:38.263Z,13.84
2022-10-16T02:47:42.617Z,13.70
2022-10-16T02:49:45.080Z,13.72
2022-10-16T02:51:46.994Z,13.70
2022-10-16T02:53:48.931Z,13.79
2022-10-16T02:55:51.057Z,13.86
2022-10-16T02:57:53.748Z,13.79
2022-10-16T02:59:55.779Z,13.74
2022-10-16T03:01:57.814Z,13.79
2022-10-16T03:03:59.716Z,13.69
2022-10-16T03:06:01.860Z,13.57
2022-10-16T03:08:04.557Z,13.52
2022-10-16T03:10:07.192Z,13.52
2022-10-16T03:12:09.302Z,13.48
2022-10-16T03:14:11.300Z,13.54
2022-10-16T03:16:13.238Z,13.61
2022-10-16T03:18:15.294Z,13.68
2022-10-16T03:20:17.491Z,13.65
2022-10-16T03:22:19.400Z,13.57
2022-10-16T03:24:21.222Z,13.60
2022-10-16T03:26:23.315Z,13.59
2022-10-16T03:28:25.345Z,13.58
2022-10-16T03:30:27.430Z,13.63
2022-10-16T03:32:29.767Z,13.63
2022-10-16T03:34:31.974Z,13.70
2022-10-16T03:36:34.718Z,13.63
2022-10-16T03:38:36.675Z,13.64
2022-10-16T03:40:38.649Z,13.64
2022-10-16T03:42:40.643Z,13.58
2022-10-16T03:44:42.703Z,13.54
2022-10-16T03:46:45.104Z,13.56
2022-10-16T03:48:47.118Z,13.54
2022-10-16T03:50:52.852Z,13.56
2022-10-16T03:52:55.007Z,13.53
2022-10-16T03:54:57.124Z,13.52
2022-10-16T03:56:59.394Z,13.50
2022-10-16T03:59:01.637Z,13.50
2022-10-16T04:01:06.961Z,13.52
2022-10-16T04:03:09.027Z,13.55
2022-10-16T04:05:11.172Z,13.61
2022-10-16T04:07:13.127Z,13.64
2022-10-16T04:09:15.490Z,13.67
2022-10-16T04:11:17.602Z,13.72
2022-10-16T04:15:26.995Z,13.70
2022-10-16T04:17:29.221Z,13.70
2022-10-16T04:19:31.208Z,13.59
2022-10-16T04:21:33.379Z,13.54
2022-10-16T04:23:35.595Z,13.45
2022-10-16T04:25:37.956Z,13.43
2022-10-16T04:27:42.282Z,13.53
2022-10-16T04:29:47.410Z,13.44
2022-10-16T04:31:49.425Z,13.44
2022-10-16T04:33:51.487Z,13.56
2022-10-16T04:36:00.857Z,13.56
2022-10-16T04:38:02.956Z,13.58
2022-10-16T04:40:06.019Z,13.58
2022-10-16T04:42:08.304Z,13.59
2022-10-16T04:44:10.782Z,13.55
2022-10-16T04:46:14.137Z,13.41
2022-10-16T04:48:16.141Z,13.27
2022-10-16T04:50:18.266Z,13.36
2022-10-16T04:52:37.134Z,13.15
2022-10-16T04:54:39.455Z,13.24
2022-10-16T04:56:47.901Z,13.16
2022-10-16T04:58:49.991Z,13.12
2022-10-16T05:00:51.892Z,13.06
2022-10-16T05:02:54.147Z,13.06
2022-10-16T05:04:56.215Z,13.03
2022-10-16T05:06:58.263Z,13.05
2022-10-16T05:09:00.331Z,13.08
2022-10-16T05:11:02.970Z,13.12
2022-10-16T05:13:05.209Z,13.25
2022-10-16T05:15:07.801Z,13.35
2022-10-16T05:17:09.936Z,13.37
2022-10-16T05:19:28.553Z,13.24
2022-10-16T05:21:31.544Z,13.33
2022-10-16T05:23:34.092Z,13.36
2022-10-16T05:25:36.059Z,13.34
2022-10-16T05:27:38.136Z,13.28
2022-10-16T05:29:40.071Z,13.37
2022-10-16T05:31:42.127Z,13.42
2022-10-16T05:33:45.300Z,13.49
2022-10-16T05:35:47.604Z,13.54
2022-10-16T05:37:49.679Z,13.68
2022-10-16T05:39:52.521Z,13.80
2022-10-16T05:41:54.549Z,13.90
2022-10-16T05:43:56.555Z,13.98
2022-10-16T05:46:01.242Z,14.04
2022-10-16T05:48:03.077Z,14.17
2022-10-16T05:50:05.529Z,14.31
2022-10-16T05:52:07.544Z,14.40
2022-10-16T05:54:10.032Z,14.41
2022-10-16T05:56:13.846Z,14.38
2022-10-16T05:58:15.959Z,14.48
2022-10-16T06:00:18.239Z,14.57
2022-10-16T06:02:20.246Z,14.69
2022-10-16T06:04:22.199Z,14.79
2022-10-16T06:06:27.024Z,14.84
2022-10-16T06:08:29.021Z,14.88
2022-10-16T06:10:30.921Z,14.98
2022-10-16T06:12:32.946Z,15.12
2022-10-16T06:14:34.884Z,15.27
2022-10-16T06:16:38.169Z,15.35
2022-10-16T06:18:40.512Z,15.49
2022-10-16T06:20:42.452Z,15.60
2022-10-16T06:22:44.390Z,15.70
2022-10-16T06:24:47.630Z,15.74
2022-10-16T06:26:49.501Z,15.88
2022-10-16T06:28:51.583Z,16.02
2022-10-16T06:31:04.121Z,16.10
2022-10-16T06:33:09.160Z,16.24
2022-10-16T06:35:10.939Z,16.24
2022-10-16T06:37:12.779Z,16.38
2022-10-16T06:39:14.553Z,16.43
2022-10-16T06:41:19.390Z,16.50
2022-10-16T06:43:21.174Z,16.59
2022-10-16T06:45:23.233Z,16.68
2022-10-16T06:47:25.112Z,16.75
2022-10-16T06:49:27.023Z,16.84
2022-10-16T06:51:29.061Z,16.86
2022-10-16T06:53:40.022Z,16.87
2022-10-16T06:55:46.395Z,16.97
2022-10-16T06:57:49.329Z,17.03
2022-10-16T06:59:55.223Z,17.16
2022-10-16T07:01:57.419Z,17.30
2022-10-16T07:04:02.417Z,17.46
2022-10-16T07:06:06.007Z,17.53
2022-10-16T07:08:07.984Z,17.61
2022-10-16T07:10:10.256Z,17.59
2022-10-16T07:12:12.299Z,17.68
2022-10-16T07:14:18.414Z,17.82
2022-10-16T07:16:22.548Z,17.98
2022-10-16T07:18:27.673Z,18.10
2022-10-16T07:20:29.892Z,18.24
2022-10-16T07:22:32.079Z,18.35
2022-10-16T07:24:34.328Z,18.44
2022-10-16T07:26:37.832Z,18.56
2022-10-16T07:28:40.976Z,18.69
2022-10-16T07:30:43.161Z,18.77
2022-10-16T07:32:45.454Z,18.81
2022-10-16T07:34:47.630Z,18.86
2022-10-16T07:36:52.984Z,18.92
2022-10-16T07:38:58.672Z,19.02
2022-10-16T07:41:05.991Z,19.07
2022-10-16T07:43:07.905Z,19.08
2022-10-16T07:45:10.305Z,19.12
2022-10-16T07:47:12.238Z,19.17
2022-10-16T07:49:14.842Z,19.15
2022-10-16T07:51:20.303Z,19.13
2022-10-16T07:53:24.806Z,19.27
2022-10-16T07:55:29.126Z,19.34
2022-10-16T07:57:31.160Z,19.40
2022-10-16T07:59:33.441Z,19.47
2022-10-16T08:01:35.899Z,19.50
2022-10-16T08:03:38.172Z,19.51
2022-10-16T08:05:40.378Z,19.57
2022-10-16T08:07:42.408Z,19.59
2022-10-16T08:09:44.423Z,19.59
2022-10-16T08:11:46.979Z,19.60
2022-10-16T08:13:49.395Z,19.62
2022-10-16T08:15:51.533Z,19.63
2022-10-16T08:18:01.843Z,19.58
2022-10-16T08:20:04.270Z,19.73
2022-10-16T08:22:06.798Z,19.83
2022-10-16T08:24:09.825Z,19.87
2022-10-16T08:26:13.088Z,19.91
2022-10-16T08:28:15.149Z,20.00
2022-10-16T08:30:18.684Z,20.05
2022-10-16T08:32:23.966Z,20.07
2022-10-16T08:34:29.008Z,20.16
2022-10-16T08:36:33.917Z,20.24
2022-10-16T08:38:36.455Z,20.26
2022-10-16T08:40:39.066Z,20.31
2022-10-16T08:42:41.036Z,20.33
2022-10-16T08:44:45.581Z,20.39
2022-10-16T08:47:23.349Z,20.50
2022-10-16T08:49:25.829Z,20.62
2022-10-16T08:51:32.235Z,20.73
2022-10-16T08:53:50.961Z,20.81
2022-10-16T08:55:54.425Z,20.92
2022-10-16T08:57:57.035Z,21.00
2022-10-16T09:00:10.060Z,21.00
2022-10-16T09:02:25.020Z,21.04
2022-10-16T09:04:51.793Z,21.14
2022-10-16T09:07:00.556Z,21.24
2022-10-16T09:09:22.488Z,21.31
2022-10-16T09:11:51.741Z,21.37
2022-10-16T09:14:37.311Z,21.47
2022-10-16T09:16:48.036Z,21.53
2022-10-16T09:19:13.016Z,21.60
2022-10-16T09:21:18.372Z,21.67
2022-10-16T09:23:23.547Z,21.72
2022-10-16T09:25:26.333Z,21.80
2022-10-16T09:27:33.695Z,21.86
2022-10-16T09:29:37.217Z,21.88
2022-10-16T09:31:39.458Z,21.95
2022-10-16T09:33:42.133Z,21.99
2022-10-16T09:35:55.943Z,22.03
2022-10-16T09:37:58.164Z,22.08
2022-10-16T09:40:05.085Z,22.13
2022-10-16T09:42:15.289Z,22.21
2022-10-16T09:44:30.990Z,22.29
2022-10-16T09:46:38.842Z,22.33
2022-10-16T09:48:46.164Z,22.37
2022-10-16T09:53:11.877Z,22.38
2022-10-16T09:55:19.462Z,22.44
2022-10-16T09:57:23.075Z,22.51
2022-10-16T09:59:27.374Z,22.57
2022-10-16T10:01:54.117Z,22.54
2022-10-16T10:04:02.294Z,22.59
2022-10-16T10:06:32.429Z,22.59
2022-10-16T10:08:34.459Z,22.66
2022-10-16T10:10:43.747Z,22.66
2022-10-16T10:12:46.688Z,22.75
2022-10-16T10:14:51.717Z,22.78
2022-10-16T10:17:05.892Z,22.81
2022-10-16T10:19:18.929Z,22.83
2022-10-16T10:21:20.978Z,22.91
2022-10-16T10:23:34.554Z,22.93
2022-10-16T10:26:05.614Z,22.97
2022-10-16T10:28:36.223Z,22.98
2022-10-16T10:31:00.018Z,23.06
2022-10-16T10:33:26.079Z,23.08
2022-10-16T10:36:03.528Z,23.16
2022-10-16T10:38:13.827Z,23.18
2022-10-16T10:40:40.997Z,23.23
2022-10-16T10:43:08.655Z,23.25
2022-10-16T10:45:19.685Z,23.36
2022-10-16T10:47:58.136Z,23.39
2022-10-16T10:50:24.111Z,23.43
2022-10-16T10:53:05.502Z,23.38
2022-10-16T10:55:25.070Z,23.39
2022-10-16T10:57:58.425Z,23.34
2022-10-16T11:00:10.384Z,23.38
2022-10-16T11:02:23.247Z,23.39
2022-10-16T11:04:31.167Z,23.47
2022-10-16T11:06:41.210Z,23.53
2022-10-16T11:08:57.669Z,23.53
2022-10-16T11:11:24.039Z,23.57
2022-10-16T11:13:45.061Z,23.57
2022-10-16T11:18:22.586Z,23.77
2022-10-16T11:20:27.516Z,23.86
2022-10-16T11:22:43.113Z,23.87
2022-10-16T11:25:15.432Z,23.90
2022-10-16T11:27:22.887Z,23.95
2022-10-16T11:29:30.263Z,23.95
2022-10-16T11:31:40.044Z,23.91
2022-10-16T11:36:29.685Z,24.01
2022-10-16T11:38:50.487Z,24.04
2022-10-16T11:40:58.881Z,24.08
2022-10-16T11:43:16.109Z,24.07
2022-10-16T11:45:43.700Z,24.07
2022-10-16T11:48:05.431Z,24.11
2022-10-16T11:50:18.854Z,23.99
2022-10-16T11:52:39.381Z,24.07
2022-10-16T11:54:47.188Z,24.08
2022-10-16T11:56:54.433Z,24.06
2022-10-16T12:06:44.910Z,24.06
2022-10-16T12:08:48.169Z,23.98
2022-10-16T12:10:50.299Z,23.93
2022-10-16T12:12:52.663Z,23.87
2022-10-16T12:15:17.621Z,23.88
2022-10-16T12:17:36.206Z,23.85
2022-10-16T12:19:38.683Z,23.89
2022-10-16T12:21:40.890Z,23.97
2022-10-16T12:23:50.360Z,23.98
2022-10-16T12:25:57.529Z,23.94
2022-10-16T12:28:06.035Z,23.98
2022-10-16T12:30:09.323Z,24.01
2022-10-16T12:32:48.638Z,24.02
2022-10-16T12:34:51.059Z,24.04
2022-10-16T12:36:55.120Z,24.05
2022-10-16T12:38:57.676Z,24.07
2022-10-16T12:41:13.284Z,24.03
2022-10-16T12:43:23.007Z,24.05
2022-10-16T12:45:33.579Z,24.08
2022-10-16T12:47:35.722Z,24.13
2022-10-16T12:49:40.983Z,24.13
2022-10-16T12:51:43.885Z,24.14
2022-10-16T12:53:45.885Z,24.11
2022-10-16T12:55:56.372Z,24.11
2022-10-16T12:58:19.572Z,24.07
2022-10-16T13:00:46.019Z,24.09
2022-10-16T13:03:12.362Z,24.11
2022-10-16T13:05:30.910Z,24.07
2022-10-16T13:07:42.151Z,24.06
2022-10-16T13:10:07.154Z,23.99
2022-10-16T13:13:11.962Z,24.01
2022-10-16T13:15:45.961Z,24.02
2022-10-16T13:17:50.763Z,23.96
2022-10-16T13:20:13.737Z,23.98
2022-10-16T13:22:30.909Z,23.96
2022-10-16T13:24:41.591Z,23.95
2022-10-16T13:27:04.766Z,23.95
2022-10-16T13:29:06.905Z,23.97
2022-10-16T13:31:26.202Z,23.87
2022-10-16T13:33:33.895Z,23.91
2022-10-16T13:35:37.688Z,23.94
2022-10-16T13:37:39.893Z,23.95
2022-10-16T13:39:41.958Z,23.91
2022-10-16T13:41:44.577Z,23.94
2022-10-16T13:43:54.220Z,23.91
2022-10-16T13:46:17.558Z,23.89
2022-10-16T13:48:19.704Z,23.87
2022-10-16T13:50:21.687Z,23.84
2022-10-16T13:52:24.186Z,23.85
2022-10-16T13:54:29.950Z,23.79
2022-10-16T13:56:34.198Z,23.79
2022-10-16T13:58:36.701Z,23.76
2022-10-16T14:00:41.491Z,23.81
2022-10-16T14:02:43.778Z,23.78
2022-10-16T14:04:47.417Z,23.79
2022-10-16T14:06:52.229Z,23.76
2022-10-16T14:09:30.239Z,23.68
2022-10-16T14:11:32.537Z,23.69
2022-10-16T14:13:46.848Z,23.60
2022-10-16T14:15:52.713Z,23.61
2022-10-16T14:17:55.072Z,23.59
2022-10-16T14:20:02.629Z,23.55
2022-10-16T14:22:39.484Z,23.52
2022-10-16T14:24:41.691Z,23.51
2022-10-16T14:26:50.631Z,23.52
2022-10-16T14:29:13.206Z,23.42
2022-10-16T14:31:24.198Z,23.43
2022-10-16T14:33:30.761Z,23.41
2022-10-16T14:35:40.051Z,23.43
2022-10-16T14:37:41.908Z,23.37
2022-10-16T14:39:43.837Z,23.35
2022-10-16T14:41:49.240Z,23.32
2022-10-16T14:43:57.132Z,23.29
2022-10-16T14:45:59.621Z,23.29
2022-10-16T14:48:32.056Z,23.22
2022-10-16T14:51:01.843Z,23.10
2022-10-16T14:53:13.005Z,23.12
2022-10-16T14:55:15.128Z,23.17
2022-10-16T14:57:23.437Z,23.15
2022-10-16T14:59:31.068Z,23.10
2022-10-16T15:01:32.930Z,23.11
2022-10-16T15:03:34.787Z,23.10
2022-10-16T15:05:36.870Z,23.03
2022-10-16T15:07:38.639Z,23.02
2022-10-16T15:09:43.760Z,22.99
2022-10-16T15:11:47.696Z,22.96
2022-10-16T15:13:49.939Z,22.92
2022-10-16T15:15:51.641Z,22.90
2022-10-16T15:17:57.540Z,22.86
2022-10-16T15:20:00.209Z,22.80
2022-10-16T15:22:02.266Z,22.76
2022-10-16T15:24:04.379Z,22.70
2022-10-16T15:26:06.277Z,22.65
2022-10-16T15:28:08.965Z,22.60
2022-10-16T15:30:11.359Z,22.55
2022-10-16T15:33:03.706Z,22.43
2022-10-16T15:35:05.944Z,22.42
2022-10-16T15:37:07.784Z,22.35
2022-10-16T15:39:18.499Z,22.26
2022-10-16T15:41:20.917Z,22.26
2022-10-16T15:43:22.955Z,22.21
2022-10-16T15:45:24.853Z,22.13
2022-10-16T15:47:26.864Z,22.08
2022-10-16T15:49:28.666Z,22.04
2022-10-16T15:51:30.560Z,21.96
2022-10-16T15:53:32.511Z,21.91
2022-10-16T15:55:35.305Z,21.86
2022-10-16T15:57:39.502Z,21.81
2022-10-16T15:59:41.323Z,21.76
2022-10-16T16:01:43.337Z,21.71
2022-10-16T16:03:45.524Z,21.62
2022-10-16T16:05:48.076Z,21.57
2022-10-16T16:07:51.091Z,21.51
2022-10-16T16:09:53.101Z,21.44
2022-10-16T16:11:55.138Z,21.42
2022-10-16T16:13:57.866Z,21.34
2022-10-16T16:16:00.189Z,21.28
2022-10-16T16:18:03.399Z,21.23
2022-10-16T16:20:06.588Z,21.17
2022-10-16T16:22:10.935Z,21.08
2022-10-16T16:24:15.171Z,21.04
2022-10-16T16:26:27.169Z,20.96
2022-10-16T16:28:29.130Z,20.96
2022-10-16T16:30:31.010Z,20.89
2022-10-16T16:32:33.156Z,20.85
2022-10-16T16:34:35.538Z,20.82
2022-10-16T16:36:37.717Z,20.78
2022-10-16T16:38:39.963Z,20.73
2022-10-16T16:40:41.924Z,20.71
2022-10-16T16:42:43.998Z,20.66
2022-10-16T16:44:46.092Z,20.65
2022-10-16T16:46:48.035Z,20.63
2022-10-16T16:48:54.606Z,20.58
2022-10-16T16:50:57.356Z,20.52
2022-10-16T16:52:59.266Z,20.47
2022-10-16T16:55:03.723Z,20.40
2022-10-16T16:57:05.911Z,20.22
2022-10-16T16:59:07.823Z,20.13
2022-10-16T17:01:26.762Z,20.07
2022-10-16T17:03:30.597Z,20.05
2022-10-16T17:05:32.648Z,20.07
2022-10-16T17:07:35.625Z,20.06
2022-10-16T17:09:37.639Z,20.05
2022-10-16T17:11:42.473Z,20.02
2022-10-16T17:13:44.664Z,20.01
2022-10-16T17:15:48.375Z,19.97
2022-10-16T17:17:50.795Z,19.92
2022-10-16T17:19:53.102Z,19.90
2022-10-16T17:21:55.216Z,19.87
2022-10-16T17:23:57.817Z,19.83
2022-10-16T17:26:08.308Z,19.75
2022-10-16T17:28:11.974Z,19.77
2022-10-16T17:30:13.988Z,19.72
2022-10-16T17:32:15.998Z,19.70
2022-10-16T17:34:18.370Z,19.67
2022-10-16T17:36:21.656Z,19.65
2022-10-16T17:38:23.783Z,19.63
2022-10-16T17:40:26.245Z,19.59
2022-10-16T17:42:28.561Z,19.56
2022-10-16T17:44:31.441Z,19.53
2022-10-16T17:46:37.004Z,19.50
2022-10-16T17:48:45.605Z,19.46
2022-10-16T17:50:47.624Z,19.44
2022-10-16T17:56:44.609Z,19.28
2022-10-16T17:58:52.069Z,19.22
2022-10-16T18:00:53.987Z,19.23
2022-10-16T18:02:55.875Z,19.19
2022-10-16T18:04:57.923Z,19.16
2022-10-16T18:07:00.811Z,19.10
2022-10-16T18:09:04.725Z,19.07
2022-10-16T18:11:06.899Z,19.07
2022-10-16T18:13:08.976Z,19.04
2022-10-16T18:15:11.286Z,19.01
2022-10-16T18:17:13.285Z,18.97
2022-10-16T18:19:15.132Z,18.92
2022-10-16T18:21:19.537Z,18.88
2022-10-16T18:23:21.588Z,18.85
2022-10-16T18:25:23.451Z,18.82
2022-10-16T18:27:25.549Z,18.79
2022-10-16T18:29:27.977Z,18.76
2022-10-16T18:31:31.054Z,18.72
2022-10-16T18:33:33.755Z,18.72
2022-10-16T18:35:36.557Z,18.70
2022-10-16T18:37:38.337Z,18.68
2022-10-16T18:39:40.309Z,18.65
2022-10-16T18:41:47.740Z,18.62
2022-10-16T18:43:49.818Z,18.61
2022-10-16T18:45:59.866Z,18.57
2022-10-16T18:48:02.180Z,18.58
2022-10-16T18:50:07.164Z,18.50
2022-10-16T18:52:12.827Z,18.39
2022-10-16T18:54:14.769Z,18.38
2022-10-16T18:56:18.771Z,18.37
2022-10-16T18:58:20.989Z,18.33
2022-10-16T19:00:23.144Z,18.32
2022-10-16T19:02:24.985Z,18.31
2022-10-16T19:04:26.928Z,18.28
2022-10-16T19:06:29.943Z,18.27
2022-10-16T19:08:33.829Z,18.30
2022-10-16T19:10:38.011Z,18.28
2022-10-16T19:12:41.569Z,18.26
2022-10-16T19:14:43.573Z,18.27
2022-10-16T19:16:45.456Z,18.22
2022-10-16T19:18:48.611Z,18.19
2022-10-16T19:20:50.996Z,18.20
2022-10-16T19:22:58.963Z,18.17
2022-10-16T19:25:01.310Z,18.14
2022-10-16T19:27:03.450Z,18.13
2022-10-16T19:29:07.458Z,18.11
2022-10-16T19:31:19.406Z,18.03
2022-10-16T19:33:21.852Z,18.05
2022-10-16T19:35:23.926Z,18.02
2022-10-16T19:37:27.486Z,17.98
2022-10-16T19:39:29.700Z,17.96
2022-10-16T19:41:37.670Z,17.92
2022-10-16T19:43:40.161Z,17.88
2022-10-16T19:45:42.412Z,17.86
2022-10-16T19:47:46.126Z,17.79
2022-10-16T19:49:50.291Z,17.68
2022-10-16T19:51:54.765Z,17.68
2022-10-16T19:54:02.145Z,17.64
2022-10-16T19:56:13.472Z,17.42
2022-10-16T19:58:15.640Z,17.45
2022-10-16T20:00:18.293Z,17.47
2022-10-16T20:02:20.710Z,17.51
2022-10-16T20:04:22.822Z,17.54
2022-10-16T20:06:25.641Z,17.54
2022-10-16T20:08:27.771Z,17.54
2022-10-16T20:10:32.918Z,17.55
2022-10-16T20:12:34.934Z,17.56
2022-10-16T20:14:37.379Z,17.38
2022-10-16T20:16:40.618Z,17.31
2022-10-16T20:18:42.797Z,17.23
2022-10-16T20:20:52.583Z,17.25
2022-10-16T20:22:54.628Z,17.20
2022-10-16T20:24:56.695Z,17.12
2022-10-16T20:27:00.170Z,17.02
2022-10-16T20:29:03.776Z,16.95
2022-10-16T20:31:13.550Z,17.01
2022-10-16T20:33:16.908Z,17.05
2022-10-16T20:35:18.915Z,17.02
2022-10-16T20:37:21.064Z,16.90
2022-10-16T20:39:23.393Z,16.94
2022-10-16T20:41:25.579Z,16.97
2022-10-16T20:43:27.578Z,17.01
2022-10-16T20:45:30.028Z,17.00
2022-10-16T20:47:32.094Z,17.03
2022-10-16T20:49:40.668Z,17.05
2022-10-16T20:51:44.109Z,17.04
2022-10-16T20:53:48.484Z,16.95
2022-10-16T20:55:50.767Z,16.95
2022-10-16T20:57:53.500Z,16.88
2022-10-16T20:59:55.945Z,16.80
2022-10-16T21:01:58.341Z,16.74
2022-10-16T21:04:02.701Z,16.71
2022-10-16T21:06:07.428Z,16.78
2022-10-16T21:08:09.619Z,16.74
2022-10-16T21:10:12.498Z,16.64
2022-10-16T21:12:14.829Z,16.67
2022-10-16T21:14:17.008Z,16.71
2022-10-16T21:16:19.287Z,16.73
2022-10-16T21:18:21.225Z,16.76
2022-10-16T21:20:23.307Z,16.79
2022-10-16T21:22:30.149Z,16.79
2022-10-16T21:24:32.678Z,16.87
2022-10-16T21:26:34.504Z,16.88
2022-10-16T21:28:36.508Z,16.92
2022-10-16T21:30:38.533Z,16.94
2022-10-16T21:32:40.781Z,16.93
2022-10-16T21:34:43.096Z,16.91
2022-10-16T21:36:45.162Z,16.91
2022-10-16T21:38:48.128Z,16.89
2022-10-16T21:40:51.380Z,16.88
2022-10-16T21:42:53.627Z,16.88
2022-10-16T21:44:55.732Z,16.72
2022-10-16T21:46:57.675Z,16.59
2022-10-16T21:49:02.016Z,16.51
2022-10-16T21:51:04.249Z,16.40
2022-10-16T21:53:06.754Z,16.43
2022-10-16T21:55:09.405Z,16.51
2022-10-16T21:57:11.492Z,16.54
2022-10-16T21:59:14.003Z,16.54
2022-10-16T22:01:19.208Z,16.56
2022-10-16T22:03:21.352Z,16.55
2022-10-16T22:05:23.750Z,16.52
2022-10-16T22:07:25.983Z,16.54
2022-10-16T22:09:28.303Z,16.57
2022-10-16T22:11:39.265Z,16.51
2022-10-16T22:13:42.804Z,16.49
2022-10-16T22:15:52.294Z,16.46
2022-10-16T22:17:54.420Z,16.47
2022-10-16T22:19:56.322Z,16.49
2022-10-16T22:22:00.628Z,16.49
2022-10-16T22:24:03.030Z,16.47
2022-10-16T22:26:11.148Z,16.41
2022-10-16T22:28:13.632Z,16.46
2022-10-16T22:30:15.831Z,16.44
2022-10-16T22:32:18.735Z,16.41
2022-10-16T22:34:20.930Z,16.39
2022-10-16T22:36:23.881Z,16.38
2022-10-16T22:38:25.974Z,16.35
2022-10-16T22:40:27.942Z,16.35
2022-10-16T22:42:29.940Z,16.28
2022-10-16T22:44:32.020Z,16.27
2022-10-16T22:46:33.915Z,16.14
2022-10-16T22:48:36.605Z,16.04
2022-10-16T22:50:38.603Z,16.04
2022-10-16T22:52:40.690Z,16.08
2022-10-16T22:54:43.044Z,16.07
2022-10-16T22:56:45.261Z,16.04
2022-10-16T22:58:47.381Z,16.00
2022-10-16T23:00:50.059Z,16.02
2022-10-16T23:02:52.077Z,15.91
2022-10-16T23:04:54.174Z,15.78
2022-10-16T23:06:56.301Z,15.77
2022-10-16T23:09:01.011Z,15.80
2022-10-16T23:11:09.081Z,15.68
2022-10-16T23:13:12.449Z,15.69
2022-10-16T23:15:14.594Z,15.71
2022-10-16T23:17:16.737Z,15.82
2022-10-16T23:19:18.679Z,15.86
2022-10-16T23:21:23.610Z,15.82
2022-10-16T23:23:25.620Z,15.85
2022-10-16T23:25:27.703Z,15.81
2022-10-16T23:27:32.472Z,15.79
2022-10-16T23:29:34.682Z,15.82
2022-10-16T23:31:36.690Z,15.81
2022-10-16T23:33:39.793Z,15.77
2022-10-16T23:35:41.766Z,15.84
2022-10-16T23:37:44.105Z,15.85
2022-10-16T23:39:46.082Z,15.88
2022-10-16T23:41:48.133Z,15.76
2022-10-16T23:43:51.513Z,15.75
2022-10-16T23:45:53.932Z,15.59
2022-10-16T23:47:56.078Z,15.61
2022-10-16T23:49:58.303Z,15.60
2022-10-16T23:52:01.591Z,15.65
2022-10-16T23:54:04.138Z,15.70
2022-10-16T23:56:06.310Z,15.72
2022-10-16T23:58:08.870Z,15.72
